createdAt,value
2018-11-04T00:00:55.269Z,18.07
2018-11-04T00:03:23.351Z,19.43
2018-11-04T00:05:51.725Z,16.83
2018-11-04T00:08:19.640Z,19.90
2018-11-04T00:10:47.551Z,18.17
2018-11-04T00:13:15.756Z,16.03
2018-11-04T00:15:43.697Z,18.40
2018-11-04T00:18:11.587Z,18.27
2018-11-04T00:20:39.926Z,16.70
2018-11-04T00:23:07.813Z,19.40
2018-11-04T00:25:36.992Z,22.00
2018-11-04T00:28:05.498Z,19.83
2018-11-04T00:30:33.478Z,21.77
2018-11-04T00:33:02.019Z,22.20
2018-11-04T00:35:29.987Z,25.93
2018-11-04T00:37:57.933Z,25.93
2018-11-04T00:40:25.855Z,25.23
2018-11-04T00:42:53.858Z,24.40
2018-11-04T00:45:21.880Z,25.07
2018-11-04T00:47:50.298Z,25.70
2018-11-04T00:50:18.225Z,27.50
2018-11-04T00:52:46.098Z,31.30
2018-11-04T00:55:14.377Z,27.77
2018-11-04T00:57:42.431Z,32.47
2018-11-04T01:00:13.803Z,36.03
2018-11-04T01:02:42.535Z,32.90
2018-11-04T01:05:10.430Z,35.20
2018-11-04T01:07:38.815Z,33.63
2018-11-04T01:10:08.035Z,30.97
2018-11-04T01:12:36.003Z,32.47
2018-11-04T01:15:04.886Z,30.87
2018-11-04T01:17:32.745Z,33.17
2018-11-04T01:20:00.937Z,32.93
2018-11-04T01:22:29.131Z,29.47
2018-11-04T01:24:57.000Z,29.37
2018-11-04T01:27:24.961Z,29.07
2018-11-04T01:29:52.848Z,30.10
2018-11-04T01:32:21.212Z,30.50
2018-11-04T01:34:49.061Z,28.53
2018-11-04T01:37:17.488Z,29.10
2018-11-04T01:39:45.918Z,29.17
2018-11-04T01:42:13.839Z,27.40
2018-11-04T01:44:41.734Z,29.73
2018-11-04T01:47:09.650Z,33.00
2018-11-04T01:49:37.538Z,29.27
2018-11-04T01:52:06.101Z,29.23
2018-11-04T01:54:34.338Z,28.40
2018-11-04T01:57:02.949Z,28.80
2018-11-04T01:59:32.093Z,32.37
2018-11-04T02:01:59.960Z,29.13
2018-11-04T02:04:27.873Z,30.37
2018-11-04T02:06:56.612Z,30.70
2018-11-04T02:09:24.834Z,27.93
2018-11-04T02:11:53.998Z,28.47
2018-11-04T02:14:21.849Z,28.33
2018-11-04T02:16:49.726Z,31.27
2018-11-04T02:19:17.643Z,30.00
2018-11-04T02:21:45.548Z,29.77
2018-11-04T02:24:13.435Z,29.53
2018-11-04T02:26:41.343Z,29.90
2018-11-04T02:29:09.318Z,28.73
2018-11-04T02:31:37.220Z,27.57
2018-11-04T02:34:05.186Z,29.63
2018-11-04T02:36:33.180Z,31.57
2018-11-04T02:39:01.172Z,31.30
2018-11-04T02:41:29.077Z,30.70
2018-11-04T02:43:57.539Z,29.57
2018-11-04T02:46:26.230Z,27.50
2018-11-04T02:48:54.226Z,31.00
2018-11-04T02:51:22.229Z,27.17
2018-11-04T02:53:50.140Z,31.50
2018-11-04T02:56:18.130Z,28.20
2018-11-04T02:58:46.053Z,29.07
2018-11-04T03:01:14.613Z,29.20
2018-11-04T03:03:42.447Z,28.40
2018-11-04T03:06:10.317Z,29.20
2018-11-04T03:08:38.694Z,30.87
2018-11-04T03:11:07.180Z,29.47
2018-11-04T03:13:35.046Z,30.80
2018-11-04T03:16:02.963Z,30.03
2018-11-04T03:18:30.846Z,30.00
2018-11-04T03:20:58.682Z,28.40
2018-11-04T03:23:26.587Z,28.17
2018-11-04T03:25:54.441Z,31.30
2018-11-04T03:28:22.296Z,30.30
2018-11-04T03:30:50.132Z,30.20
2018-11-04T03:33:18.017Z,34.03
2018-11-04T03:35:45.921Z,31.40
2018-11-04T03:38:13.845Z,34.13
2018-11-04T03:40:41.867Z,25.60
2018-11-04T03:43:09.721Z,29.30
2018-11-04T03:45:37.613Z,29.10
2018-11-04T03:48:06.559Z,27.03
2018-11-04T03:50:35.237Z,28.63
2018-11-04T03:53:06.185Z,29.10
2018-11-04T03:55:34.994Z,29.93
2018-11-04T03:58:03.126Z,29.13
2018-11-04T04:00:31.648Z,28.83
2018-11-04T04:03:00.186Z,25.93
2018-11-04T04:05:28.132Z,28.00
2018-11-04T04:07:56.681Z,29.37
2018-11-04T04:10:25.123Z,30.00
2018-11-04T04:12:54.420Z,27.00
2018-11-04T04:15:23.113Z,28.07
2018-11-04T04:17:50.989Z,27.80
2018-11-04T04:20:19.690Z,29.97
2018-11-04T04:22:47.675Z,25.50
2018-11-04T04:25:15.584Z,26.10
2018-11-04T04:27:43.492Z,26.93
2018-11-04T04:30:11.774Z,27.00
2018-11-04T04:32:40.549Z,25.30
2018-11-04T04:35:09.343Z,26.90
2018-11-04T04:37:37.797Z,26.73
2018-11-04T04:40:06.725Z,27.17
2018-11-04T04:42:34.599Z,25.00
2018-11-04T04:45:02.504Z,25.93
2018-11-04T04:47:31.440Z,27.70
2018-11-04T04:49:59.447Z,29.67
2018-11-04T04:52:27.337Z,26.77
2018-11-04T04:54:55.218Z,27.30
2018-11-04T04:57:23.136Z,27.47
2018-11-04T04:59:51.718Z,26.43
2018-11-04T05:02:20.240Z,27.37
2018-11-04T05:04:48.153Z,27.07
2018-11-04T05:07:16.158Z,29.07
2018-11-04T05:09:44.138Z,29.23
2018-11-04T05:12:12.029Z,28.90
2018-11-04T05:14:40.612Z,28.10
2018-11-04T05:17:08.527Z,30.30
2018-11-04T05:19:36.452Z,26.80
2018-11-04T05:22:04.904Z,28.03
2018-11-04T05:24:32.799Z,28.80
2018-11-04T05:27:00.675Z,28.63
2018-11-04T05:29:28.612Z,28.73
2018-11-04T05:31:57.270Z,30.87
2018-11-04T05:34:25.220Z,28.60
2018-11-04T05:36:53.273Z,27.80
2018-11-04T05:39:21.146Z,30.20
2018-11-04T05:41:49.811Z,30.83
2018-11-04T05:44:17.693Z,35.97
2018-11-04T05:46:47.885Z,29.47
2018-11-04T05:49:15.769Z,32.33
2018-11-04T05:51:43.956Z,33.10
2018-11-04T05:54:11.844Z,32.63
2018-11-04T05:56:39.766Z,30.33
2018-11-04T05:59:07.677Z,31.33
2018-11-04T06:01:35.551Z,29.63
2018-11-04T06:04:03.417Z,30.97
2018-11-04T06:06:31.300Z,29.50
2018-11-04T06:08:59.510Z,203.27
2018-11-04T06:11:27.366Z,30.20
2018-11-04T06:13:56.103Z,31.23
2018-11-04T06:16:23.987Z,31.13
2018-11-04T06:18:51.896Z,32.60
2018-11-04T06:21:19.803Z,31.90
2018-11-04T06:23:47.687Z,32.63
2018-11-04T06:26:16.177Z,32.57
2018-11-04T06:28:44.051Z,28.63
2018-11-04T06:31:11.959Z,30.13
2018-11-04T06:33:39.840Z,60.20
2018-11-04T06:36:07.701Z,33.90
2018-11-04T06:38:36.076Z,31.43
2018-11-04T06:41:04.037Z,28.47
2018-11-04T06:43:31.913Z,31.17
2018-11-04T06:46:00.322Z,28.13
2018-11-04T06:48:28.168Z,31.60
2018-11-04T06:50:57.450Z,31.27
2018-11-04T06:53:25.326Z,28.27
2018-11-04T06:55:53.205Z,31.13
2018-11-04T06:58:21.603Z,31.83
2018-11-04T07:00:49.474Z,31.83
2018-11-04T07:03:18.166Z,31.17
2018-11-04T07:05:46.062Z,30.33
2018-11-04T07:08:13.959Z,33.57
2018-11-04T07:10:42.143Z,34.00
2018-11-04T07:13:10.025Z,35.73
2018-11-04T07:15:37.925Z,35.00
2018-11-04T07:18:06.169Z,31.07
2018-11-04T07:20:34.840Z,35.40
2018-11-04T07:23:03.572Z,34.70
2018-11-04T07:25:31.521Z,34.33
2018-11-04T07:28:00.056Z,34.03
2018-11-04T07:30:28.442Z,36.00
2018-11-04T07:32:56.334Z,36.97
2018-11-04T07:35:24.247Z,37.43
2018-11-04T07:37:52.222Z,40.17
2018-11-04T07:40:21.138Z,35.20
2018-11-04T07:42:49.072Z,37.40
2018-11-04T07:45:16.949Z,37.23
2018-11-04T07:47:44.803Z,39.33
2018-11-04T07:50:14.248Z,43.40
2018-11-04T07:52:43.551Z,37.50
2018-11-04T07:55:11.557Z,38.73
2018-11-04T07:57:41.155Z,38.17
2018-11-04T08:00:12.294Z,38.67
2018-11-04T08:02:40.554Z,45.10
2018-11-04T08:05:09.855Z,41.73
2018-11-04T08:07:38.733Z,43.50
2018-11-04T08:10:08.805Z,42.50
2018-11-04T08:12:36.727Z,42.83
2018-11-04T08:15:04.870Z,44.03
2018-11-04T08:17:33.706Z,44.10
2018-11-04T08:20:01.603Z,47.60
2018-11-04T08:22:29.527Z,42.10
2018-11-04T08:24:57.694Z,51.37
2018-11-04T08:27:26.111Z,46.77
2018-11-04T08:29:55.759Z,39.63
2018-11-04T08:32:24.172Z,40.90
2018-11-04T08:34:52.249Z,40.73
2018-11-04T08:37:20.141Z,40.53
2018-11-04T08:39:48.226Z,70.10
2018-11-04T08:42:16.107Z,80.60
2018-11-04T08:44:44.614Z,123.43
2018-11-04T08:47:12.522Z,38.27
2018-11-04T08:49:40.486Z,62.53
2018-11-04T08:52:08.505Z,43.47
2018-11-04T08:54:36.423Z,39.57
2018-11-04T08:57:04.454Z,44.63
2018-11-04T08:59:32.318Z,41.90
2018-11-04T09:02:00.529Z,43.20
2018-11-04T09:04:28.448Z,41.07
2018-11-04T09:06:56.375Z,44.80
2018-11-04T09:09:24.337Z,48.03
2018-11-04T09:11:52.221Z,47.93
2018-11-04T09:14:20.624Z,41.40
2018-11-04T09:16:48.495Z,41.20
2018-11-04T09:19:16.718Z,45.33
2018-11-04T09:21:45.744Z,42.53
2018-11-04T09:24:13.958Z,41.83
2018-11-04T09:26:41.880Z,41.20
2018-11-04T09:29:09.796Z,48.37
2018-11-04T09:31:37.744Z,43.87
2018-11-04T09:34:05.677Z,43.50
2018-11-04T09:36:33.708Z,40.70
2018-11-04T09:39:01.719Z,44.73
2018-11-04T09:41:29.656Z,44.23
2018-11-04T09:43:57.620Z,47.00
2018-11-04T09:46:25.556Z,46.27
2018-11-04T09:48:54.332Z,45.00
2018-11-04T09:51:22.941Z,44.77
2018-11-04T09:53:50.974Z,49.07
2018-11-04T09:56:19.907Z,45.43
2018-11-04T09:58:47.904Z,49.20
2018-11-04T10:01:15.770Z,48.73
2018-11-04T10:03:43.738Z,44.57
2018-11-04T10:06:11.619Z,52.50
2018-11-04T10:08:39.795Z,55.73
2018-11-04T10:11:07.646Z,43.80
2018-11-04T10:13:35.588Z,45.17
2018-11-04T10:16:03.529Z,46.50
2018-11-04T10:18:31.482Z,44.17
2018-11-04T10:20:59.802Z,43.27
2018-11-04T10:23:27.376Z,49.47
2018-11-04T10:25:56.175Z,38.90
2018-11-04T10:28:24.064Z,41.83
2018-11-04T10:30:51.961Z,45.10
2018-11-04T10:33:19.812Z,37.13
2018-11-04T10:35:48.667Z,44.30
2018-11-04T10:38:17.201Z,44.63
2018-11-04T10:40:45.349Z,46.30
2018-11-04T10:43:14.224Z,47.07
2018-11-04T10:45:42.169Z,45.70
2018-11-04T10:48:10.053Z,44.40
2018-11-04T10:50:38.001Z,48.30
2018-11-04T10:53:05.887Z,45.53
2018-11-04T10:55:33.824Z,47.57
2018-11-04T10:58:01.747Z,53.97
2018-11-04T11:00:37.291Z,46.67
2018-11-04T11:03:05.190Z,47.70
2018-11-04T11:05:33.414Z,51.33
2018-11-04T11:08:01.712Z,54.20
2018-11-04T11:10:29.651Z,53.00
2018-11-04T11:12:57.546Z,52.33
2018-11-04T11:15:25.426Z,53.33
2018-11-04T11:17:53.285Z,51.10
2018-11-04T11:20:21.900Z,54.50
2018-11-04T11:22:49.994Z,55.33
2018-11-04T11:25:17.884Z,68.73
2018-11-04T11:27:45.794Z,60.20
2018-11-04T11:30:14.624Z,61.70
2018-11-04T11:32:42.423Z,63.90
2018-11-04T11:35:11.105Z,57.10
2018-11-04T11:37:39.034Z,59.70
2018-11-04T11:40:07.978Z,55.90
2018-11-04T11:42:36.055Z,59.77
2018-11-04T11:45:04.491Z,60.37
2018-11-04T11:47:32.428Z,56.20
2018-11-04T11:50:00.425Z,64.07
2018-11-04T11:52:28.362Z,67.60
2018-11-04T11:54:56.377Z,60.67
2018-11-04T11:57:24.363Z,60.60
2018-11-04T11:59:52.547Z,99.43
2018-11-04T12:02:20.478Z,84.87
2018-11-04T12:04:48.277Z,103.47
2018-11-04T12:07:16.776Z,87.27
2018-11-04T12:09:45.607Z,86.50
2018-11-04T12:12:13.522Z,77.63
2018-11-04T12:14:41.398Z,106.53
2018-11-04T12:17:09.298Z,79.93
2018-11-04T12:19:37.234Z,81.97
2018-11-04T12:22:05.139Z,80.77
2018-11-04T12:24:33.008Z,82.30
2018-11-04T12:27:00.914Z,84.47
2018-11-04T12:29:29.747Z,79.30
2018-11-04T12:31:58.331Z,78.40
2018-11-04T12:34:26.921Z,82.97
2018-11-04T12:36:54.834Z,85.97
2018-11-04T12:39:22.762Z,79.47
2018-11-04T12:41:51.493Z,82.90
2018-11-04T12:44:19.348Z,88.50
2018-11-04T12:46:47.379Z,82.93
2018-11-04T12:49:15.322Z,91.67
2018-11-04T12:51:43.235Z,96.00
2018-11-04T12:54:12.048Z,85.40
2018-11-04T12:56:39.923Z,82.63
2018-11-04T12:59:07.983Z,80.87
2018-11-04T13:01:36.140Z,84.00
2018-11-04T13:04:04.143Z,88.87
2018-11-04T13:06:32.064Z,94.10
2018-11-04T13:08:59.941Z,87.63
2018-11-04T13:11:27.848Z,90.63
2018-11-04T13:13:56.386Z,89.67
2018-11-04T13:16:24.822Z,94.00
2018-11-04T13:18:52.659Z,88.37
2018-11-04T13:21:21.553Z,85.13
2018-11-04T13:23:51.034Z,87.73
2018-11-04T13:26:23.463Z,87.67
2018-11-04T13:28:58.046Z,89.00
2018-11-04T13:31:25.953Z,92.43
2018-11-04T13:33:53.776Z,84.30
2018-11-04T13:36:21.666Z,93.33
2018-11-04T13:38:49.548Z,96.93
2018-11-04T13:41:17.708Z,87.33
2018-11-04T13:43:45.623Z,84.90
2018-11-04T13:46:13.677Z,105.63
2018-11-04T13:48:41.635Z,137.60
2018-11-04T13:51:10.225Z,100.73
2018-11-04T13:53:38.123Z,95.63
2018-11-04T13:56:06.062Z,109.43
2018-11-04T13:58:33.963Z,98.40
2018-11-04T14:01:01.895Z,98.00
2018-11-04T14:03:29.817Z,93.47
2018-11-04T14:05:58.000Z,100.00
2018-11-04T14:08:27.252Z,108.63
2018-11-04T14:10:55.125Z,94.90
2018-11-04T14:13:23.092Z,89.70
2018-11-04T14:15:50.973Z,80.97
2018-11-04T14:18:18.873Z,81.53
2018-11-04T14:20:46.811Z,84.33
2018-11-04T14:23:14.708Z,87.90
2018-11-04T14:25:42.972Z,78.40
2018-11-04T14:28:10.863Z,89.57
2018-11-04T14:30:38.749Z,82.47
2018-11-04T14:33:06.619Z,79.53
2018-11-04T14:35:35.182Z,78.00
2018-11-04T14:38:03.239Z,76.03
2018-11-04T14:40:31.571Z,70.00
2018-11-04T14:42:59.651Z,73.07
2018-11-04T14:45:30.255Z,72.73
2018-11-04T14:47:58.712Z,71.50
2018-11-04T14:50:28.727Z,64.70
2018-11-04T14:52:58.244Z,67.00
2018-11-04T14:55:30.149Z,63.83
2018-11-04T14:57:58.147Z,60.00
2018-11-04T15:00:26.541Z,77.43
2018-11-04T15:02:55.871Z,61.10
2018-11-04T15:05:23.954Z,58.07
2018-11-04T15:07:52.393Z,59.50
2018-11-04T15:10:20.615Z,54.33
2018-11-04T15:12:49.054Z,55.37
2018-11-04T15:15:17.633Z,55.40
2018-11-04T15:17:47.362Z,56.97
2018-11-04T15:20:16.743Z,56.23
2018-11-04T15:22:48.739Z,65.47
2018-11-04T15:25:19.469Z,62.57
2018-11-04T15:27:50.948Z,53.20
2018-11-04T15:30:19.290Z,64.60
2018-11-04T15:32:48.201Z,64.47
2018-11-04T15:35:17.452Z,60.63
2018-11-04T15:37:46.920Z,66.13
2018-11-04T15:40:16.501Z,67.83
2018-11-04T15:42:44.654Z,64.47
2018-11-04T15:45:13.752Z,61.70
2018-11-04T15:47:42.225Z,65.73
2018-11-04T15:50:12.915Z,62.07
2018-11-04T15:52:42.979Z,57.97
2018-11-04T15:55:11.777Z,66.63
2018-11-04T15:57:40.461Z,61.47
2018-11-04T16:00:12.086Z,62.70
2018-11-04T16:02:40.406Z,65.93
2018-11-04T16:05:10.745Z,72.37
2018-11-04T16:07:40.041Z,71.53
2018-11-04T16:10:11.142Z,68.80
2018-11-04T16:12:39.965Z,67.10
2018-11-04T16:15:11.751Z,69.20
2018-11-04T16:17:42.171Z,72.90
2018-11-04T16:20:14.709Z,77.57
2018-11-04T16:22:45.655Z,74.70
2018-11-04T16:25:15.172Z,81.43
2018-11-04T16:27:46.194Z,81.20
2018-11-04T16:30:15.236Z,77.70
2018-11-04T16:32:44.076Z,75.00
2018-11-04T16:35:13.163Z,82.53
2018-11-04T16:37:45.810Z,78.27
2018-11-04T16:40:15.362Z,81.53
2018-11-04T16:42:44.490Z,85.70
2018-11-04T16:45:14.697Z,81.27
2018-11-04T16:47:45.090Z,78.73
2018-11-04T16:50:14.825Z,81.80
2018-11-04T16:52:45.343Z,75.90
2018-11-04T16:55:14.848Z,89.27
2018-11-04T16:57:43.736Z,79.13
2018-11-04T17:00:15.186Z,87.20
2018-11-04T17:02:44.084Z,83.27
2018-11-04T17:05:13.592Z,89.50
2018-11-04T17:07:43.699Z,88.93
2018-11-04T17:10:19.512Z,82.13
2018-11-04T17:12:51.370Z,82.60
2018-11-04T17:15:25.963Z,78.43
2018-11-04T17:17:56.518Z,74.13
2018-11-04T17:20:26.082Z,74.77
2018-11-04T17:22:54.322Z,75.47
2018-11-04T17:25:23.241Z,74.87
2018-11-04T17:27:52.121Z,83.00
2018-11-04T17:30:21.136Z,113.57
2018-11-04T17:32:50.584Z,110.67
2018-11-04T17:35:19.529Z,96.57
2018-11-04T17:37:50.025Z,86.47
2018-11-04T17:40:18.784Z,122.43
2018-11-04T17:42:48.842Z,128.27
2018-11-04T17:45:17.615Z,126.20
2018-11-04T17:47:47.450Z,88.77
2018-11-04T17:50:18.047Z,97.67
2018-11-04T17:52:48.022Z,88.07
2018-11-04T17:55:16.799Z,91.70
2018-11-04T17:57:45.889Z,84.80
2018-11-04T18:00:18.021Z,84.53
2018-11-04T18:02:47.360Z,82.90
2018-11-04T18:05:15.647Z,87.50
2018-11-04T18:07:45.590Z,84.43
2018-11-04T18:10:15.098Z,85.07
2018-11-04T18:12:44.714Z,93.27
2018-11-04T18:15:14.462Z,95.07
2018-11-04T18:17:44.799Z,88.47
2018-11-04T18:20:14.046Z,86.23
2018-11-04T18:22:44.231Z,98.10
2018-11-04T18:25:13.624Z,87.83
2018-11-04T18:27:43.631Z,92.07
2018-11-04T18:30:15.491Z,107.83
2018-11-04T18:32:45.462Z,94.77
2018-11-04T18:35:15.368Z,98.77
2018-11-04T18:37:46.693Z,97.87
2018-11-04T18:40:16.891Z,108.47
2018-11-04T18:45:15.783Z,96.17
2018-11-04T18:47:45.802Z,95.80
2018-11-04T18:50:16.451Z,90.47
2018-11-04T18:52:45.961Z,91.53
2018-11-04T18:55:15.208Z,89.37
2018-11-04T18:57:44.392Z,90.90
2018-11-04T19:00:16.712Z,92.17
2018-11-04T19:02:47.522Z,94.67
2018-11-04T19:05:16.035Z,90.17
2018-11-04T19:07:46.814Z,89.57
2018-11-04T19:10:16.918Z,87.07
2018-11-04T19:12:45.604Z,90.70
2018-11-04T19:15:14.988Z,85.53
2018-11-04T19:17:43.571Z,85.20
2018-11-04T19:20:13.897Z,83.63
2018-11-04T19:22:44.577Z,86.83
2018-11-04T19:25:14.265Z,84.87
2018-11-04T19:27:43.547Z,93.10
2018-11-04T19:30:14.891Z,94.57
2018-11-04T19:32:44.404Z,92.13
2018-11-04T19:35:14.211Z,96.03
2018-11-04T19:37:43.203Z,81.50
2018-11-04T19:40:15.278Z,90.07
2018-11-04T19:42:44.204Z,89.27
2018-11-04T19:45:12.536Z,84.97
2018-11-04T19:47:42.140Z,90.77
2018-11-04T19:50:11.676Z,87.90
2018-11-04T19:52:42.147Z,82.20
2018-11-04T19:55:11.773Z,86.40
2018-11-04T19:57:41.036Z,83.60
2018-11-04T20:00:10.373Z,82.80
2018-11-04T20:02:38.921Z,84.53
2018-11-04T20:05:08.814Z,78.20
2018-11-04T20:07:39.219Z,80.90
2018-11-04T20:10:09.862Z,82.70
2018-11-04T20:12:44.619Z,84.20
2018-11-04T20:15:13.061Z,76.60
2018-11-04T20:17:44.199Z,71.87
2018-11-04T20:20:17.186Z,77.40
2018-11-04T20:22:47.094Z,77.20
2018-11-04T20:25:22.411Z,75.73
2018-11-04T20:27:50.497Z,76.10
2018-11-04T20:30:20.163Z,76.47
2018-11-04T20:32:54.605Z,77.40
2018-11-04T20:35:23.473Z,78.00
2018-11-04T20:37:52.569Z,78.70
2018-11-04T20:41:29.410Z,73.50
2018-11-04T20:44:00.251Z,72.87
2018-11-04T20:46:28.835Z,77.00
2018-11-04T20:49:04.270Z,72.73
2018-11-04T20:51:33.627Z,75.27
2018-11-04T20:54:02.874Z,68.90
2018-11-04T20:56:37.831Z,68.80
2018-11-04T20:59:06.585Z,73.20
2018-11-04T21:01:35.026Z,69.57
2018-11-04T21:04:04.989Z,69.70
2018-11-04T21:06:33.772Z,74.70
2018-11-04T21:09:03.021Z,72.73
2018-11-04T21:11:32.634Z,70.57
2018-11-04T21:14:03.557Z,74.67
2018-11-04T21:16:32.497Z,74.00
2018-11-04T21:19:01.302Z,69.97
2018-11-04T21:21:31.735Z,69.67
2018-11-04T21:24:00.383Z,72.27
2018-11-04T21:26:28.623Z,74.10
2018-11-04T21:28:57.060Z,68.70
2018-11-04T21:31:47.027Z,74.17
2018-11-04T21:34:22.294Z,72.77
2018-11-04T21:36:50.955Z,70.40
2018-11-04T21:39:20.258Z,74.60
2018-11-04T21:41:49.711Z,73.47
2018-11-04T21:44:18.479Z,73.23
2018-11-04T21:46:46.746Z,70.57
2018-11-04T21:49:14.625Z,75.00
2018-11-04T21:51:42.525Z,73.40
2018-11-04T21:54:11.288Z,70.77
2018-11-04T21:56:40.778Z,71.87
2018-11-04T21:59:08.300Z,71.40
2018-11-04T22:01:36.513Z,70.20
2018-11-04T22:04:04.567Z,67.10
2018-11-04T22:06:32.375Z,75.70
2018-11-04T22:09:17.936Z,69.13
2018-11-04T22:11:52.802Z,65.83
2018-11-04T22:14:20.705Z,67.67
2018-11-04T22:16:48.909Z,67.00
2018-11-04T22:19:17.081Z,71.83
2018-11-04T22:21:45.299Z,65.50
2018-11-04T22:24:13.233Z,63.17
2018-11-04T22:26:41.698Z,70.87
2018-11-04T22:29:10.036Z,66.07
2018-11-04T22:31:38.461Z,68.07
2018-11-04T22:34:11.701Z,69.67
2018-11-04T22:36:39.904Z,68.13
2018-11-04T22:39:08.712Z,70.00
2018-11-04T22:41:36.690Z,67.17
2018-11-04T22:44:05.172Z,65.23
2018-11-04T22:46:33.797Z,67.73
2018-11-04T22:49:01.706Z,67.37
2018-11-04T22:51:30.181Z,72.73
2018-11-04T22:53:58.271Z,64.07
2018-11-04T22:56:26.848Z,67.57
2018-11-04T22:58:54.708Z,67.70
2018-11-04T23:01:22.741Z,64.13
2018-11-04T23:03:51.008Z,65.23
2018-11-04T23:06:18.860Z,67.40
2018-11-04T23:08:46.738Z,72.30
2018-11-04T23:11:14.704Z,65.70
2018-11-04T23:13:43.219Z,67.27
2018-11-04T23:16:11.124Z,67.20
2018-11-04T23:18:39.084Z,64.10
2018-11-04T23:21:06.962Z,66.17
2018-11-04T23:23:34.875Z,69.03
2018-11-04T23:26:02.850Z,66.27
2018-11-04T23:28:30.755Z,73.10
2018-11-04T23:30:58.631Z,68.87
2018-11-04T23:33:26.480Z,69.47
2018-11-04T23:35:54.415Z,69.40
2018-11-04T23:38:22.302Z,65.80
2018-11-04T23:40:50.504Z,65.57
2018-11-04T23:43:19.056Z,63.97
2018-11-04T23:45:46.974Z,65.13
2018-11-04T23:48:14.839Z,64.30
2018-11-04T23:50:42.721Z,67.33
2018-11-04T23:53:10.568Z,64.67
2018-11-04T23:55:38.435Z,65.73
2018-11-04T23:58:09.457Z,64.50
